Time;durP1;ratioP1;P1;durP2;ratioP2;P2;SDS_P1;SDS_P2;PMS_P1;PMS_P2;Temp;Humidity;BMP_temperature;BMP_pressure;BME280_temperature;BME280_humidity;BME280_pressure;Samples;Min_cycle;Max_cycle;Signal;HPM_P1;HPM_P2
2023/04/22 00:01:31;;;;;;;;;;;;;;;;;;4335972;33;19942;-80
2023/04/22 00:03:56;;;;;;;;;;;;;;;;;;4341980;33;19943;-80
2023/04/22 00:06:22;;;;;;;;;;;;;;;;;;4342699;33;20367;-80
2023/04/22 00:08:47;;;;;;;;;;;;;;;;;;4339840;33;19954;-81
2023/04/22 00:11:12;;;;;;;;;;;;;;;;;;4337723;33;19934;-81
2023/04/22 00:13:37;;;;;;;;;;;;;;;;;;4340627;33;19939;-80
2023/04/22 00:16:02;;;;;;;;;;;;;;;;;;4339190;33;19971;-81
2023/04/22 00:18:27;;;;;;;;;;;;;;;;;;4334754;33;19979;-81
2023/04/22 00:20:52;;;;;;;;;;;;;;;;;;4331397;33;19977;-81
2023/04/22 00:23:18;;;;;;;;;;;;;;;;;;4330903;33;19953;-81
2023/04/22 00:25:43;;;;;;;;;;;;;;;;;;4331417;33;20334;-81
2023/04/22 00:28:08;;;;;;;;;;;;;;;;;;4332608;33;19998;-80
2023/04/22 00:30:33;;;;;;;;;;;;;;;;;;4330046;33;20001;-81
2023/04/22 00:32:58;;;;;;;;;;;;;;;;;;4334319;33;20296;-81
2023/04/22 00:35:23;;;;;;;;;;;;;;;;;;4330182;33;20017;-81
2023/04/22 00:37:48;;;;;;;;;;;;;;;;;;4330623;33;19982;-82
2023/04/22 00:40:13;;;;;;;;;;;;;;;;;;4342004;33;19969;-80
2023/04/22 00:42:38;;;;;;;;;;;;;;;;;;4339921;33;20245;-82
2023/04/22 00:45:03;;;;;;;;;;;;;;;;;;4332635;33;19978;-81
2023/04/22 00:47:29;;;;;;;;;;;;;;;;;;4332109;33;19939;-81
2023/04/22 00:49:54;;;;;;;;;;;;;;;;;;4332677;33;19939;-80
2023/04/22 00:52:19;;;;;;;;;;;;;;;;;;4333489;33;19935;-80
2023/04/22 00:54:45;;;;;;;;;;;;;;;;;;4333957;33;19942;-81
2023/04/22 00:57:10;;;;;;;;;;;;;;;;;;4331940;33;19962;-81
2023/04/22 00:59:35;;;;;;;;;;;;;;;;;;4331951;33;19943;-82
2023/04/22 01:02:01;;;;;;;;;;;;;;;;;;4333705;33;19948;-82
2023/04/22 01:04:26;;;;;;;;;;;;;;;;;;4333933;33;19952;-79
2023/04/22 01:06:51;;;;;;;;;;;;;;;;;;4333627;33;19982;-80
2023/04/22 01:09:17;;;;;;;;;;;;;;;;;;4332951;33;20370;-80
2023/04/22 01:11:42;;;;;;;;;;;;;;;;;;4331590;33;19957;-81
2023/04/22 01:14:07;;;;;;;;;;;;;;;;;;4333924;33;20298;-80
2023/04/22 01:16:37;;;;;;;;;;;;;;;;;;4333413;33;19943;-80
2023/04/22 01:19:02;;;;;;;;;;;;;;;;;;4331495;33;20312;-81
2023/04/22 01:21:28;;;;;;;;;;;;;;;;;;4333201;33;19935;-80
2023/04/22 01:23:53;;;;;;;;;;;;;;;;;;4332726;33;19932;-81
2023/04/22 01:26:18;;;;;;;;;;;;;;;;;;4334274;33;19958;-81
2023/04/22 01:28:43;;;;;;;;;;;;;;;;;;4333695;33;19943;-81
2023/04/22 01:31:08;;;;;;;;;;;;;;;;;;4331336;33;19939;-81
2023/04/22 01:33:33;;;;;;;;;;;;;;;;;;4331420;33;19957;-81
2023/04/22 01:35:59;;;;;;;;;;;;;;;;;;4332736;33;19943;-80
2023/04/22 01:38:24;;;;;;;;;;;;;;;;;;4332957;33;19935;-81
2023/04/22 01:40:49;;;;;;;;;;;;;;;;;;4333417;33;19939;-81
2023/04/22 01:43:14;;;;;;;;;;;;;;;;;;4332231;33;19946;-82
2023/04/22 01:45:39;;;;;;;;;;;;;;;;;;4332723;33;19943;-81
2023/04/22 01:48:05;;;;;;;;;;;;;;;;;;4330945;33;19966;-82
2023/04/22 01:50:30;;;;;;;;;;;;;;;;;;4331006;33;19932;-82
2023/04/22 01:52:55;;;;;;;;;;;;;;;;;;4336027;33;19970;-82
2023/04/22 01:55:21;;;;;;;;;;;;;;;;;;4332250;33;19936;-82
2023/04/22 01:57:46;;;;;;;;;;;;;;;;;;4343555;33;20328;-81
2023/04/22 02:00:11;;;;;;;;;;;;;;;;;;4343339;33;20422;-82
2023/04/22 02:02:36;;;;;;;;;;;;;;;;;;4345603;33;19958;-81
2023/04/22 02:05:01;;;;;;;;;;;;;;;;;;4334128;33;20313;-81
2023/04/22 02:07:26;;;;;;;;;;;;;;;;;;4344464;33;20320;-82
2023/04/22 02:09:51;;;;;;;;;;;;;;;;;;4342924;33;20009;-82
2023/04/22 02:12:16;;;;;;;;;;;;;;;;;;4332911;33;20277;-82
2023/04/22 02:14:41;;;;;;;;;;;;;;;;;;4334249;33;20347;-83
2023/04/22 02:17:06;;;;;;;;;;;;;;;;;;4355171;32;19958;-82
2023/04/22 02:19:32;;;;;;;;;;;;;;;;;;4360516;33;19935;-80
2023/04/22 02:21:57;;;;;;;;;;;;;;;;;;4342409;33;19986;-82
2023/04/22 02:24:22;;;;;;;;;;;;;;;;;;4345115;33;19987;-83
2023/04/22 02:26:47;;;;;;;;;;;;;;;;;;4344097;33;19935;-83
2023/04/22 02:29:13;;;;;;;;;;;;;;;;;;4343954;33;19967;-83
2023/04/22 02:31:38;;;;;;;;;;;;;;;;;;4343892;33;19949;-83
2023/04/22 02:34:03;;;;;;;;;;;;;;;;;;4332930;33;19990;-83
2023/04/22 02:36:28;;;;;;;;;;;;;;;;;;4342748;33;19977;-82
2023/04/22 02:38:53;;;;;;;;;;;;;;;;;;4331761;33;20320;-83
2023/04/22 02:41:18;;;;;;;;;;;;;;;;;;4342604;33;19939;-83
2023/04/22 02:43:45;;;;;;;;;;;;;;;;;;4343055;33;19936;-83
2023/04/22 02:46:11;;;;;;;;;;;;;;;;;;4332154;33;19947;-82
2023/04/22 02:48:36;;;;;;;;;;;;;;;;;;4332431;33;19971;-82
2023/04/22 02:51:02;;;;;;;;;;;;;;;;;;4342216;33;19983;-80
2023/04/22 02:53:27;;;;;;;;;;;;;;;;;;4347725;33;20334;-83
2023/04/22 02:55:54;;;;;;;;;;;;;;;;;;4332026;33;20031;-83
2023/04/22 02:58:19;;;;;;;;;;;;;;;;;;4331331;33;19954;-82
2023/04/22 03:00:44;;;;;;;;;;;;;;;;;;4330822;33;19986;-83
2023/04/22 03:03:10;;;;;;;;;;;;;;;;;;4343429;33;20309;-83
2023/04/22 03:05:35;;;;;;;;;;;;;;;;;;4343561;33;19931;-81
2023/04/22 03:08:00;;;;;;;;;;;;;;;;;;4349024;33;19940;-82
2023/04/22 03:10:25;;;;;;;;;;;;;;;;;;4344613;33;20003;-82
2023/04/22 03:12:51;;;;;;;;;;;;;;;;;;4331829;33;19939;-81
2023/04/22 03:15:16;;;;;;;;;;;;;;;;;;4342402;33;20026;-82
2023/04/22 03:17:41;;;;;;;;;;;;;;;;;;4331266;33;19977;-82
2023/04/22 03:20:06;;;;;;;;;;;;;;;;;;4342783;33;19987;-82
2023/04/22 03:22:31;;;;;;;;;;;;;;;;;;4343989;33;19981;-82
2023/04/22 03:24:56;;;;;;;;;;;;;;;;;;4342637;33;20355;-82
2023/04/22 03:27:21;;;;;;;;;;;;;;;;;;4345222;33;19982;-81
2023/04/22 03:29:46;;;;;;;;;;;;;;;;;;4345405;33;19974;-82
2023/04/22 03:32:11;;;;;;;;;;;;;;;;;;4331670;33;19931;-83
2023/04/22 03:34:36;;;;;;;;;;;;;;;;;;4332046;33;19969;-83
2023/04/22 03:37:02;;;;;;;;;;;;;;;;;;4332345;33;19935;-82
2023/04/22 03:39:27;;;;;;;;;;;;;;;;;;4332243;33;20003;-83
2023/04/22 03:41:52;;;;;;;;;;;;;;;;;;4332735;33;19940;-82
2023/04/22 03:44:17;;;;;;;;;;;;;;;;;;4331344;33;19954;-82
2023/04/22 03:46:42;;;;;;;;;;;;;;;;;;4331787;33;19981;-82
2023/04/22 03:49:07;;;;;;;;;;;;;;;;;;4332242;33;19939;-82
2023/04/22 03:51:32;;;;;;;;;;;;;;;;;;4342826;33;19939;-83
2023/04/22 03:53:57;;;;;;;;;;;;;;;;;;4342736;33;19939;-81
2023/04/22 03:56:23;;;;;;;;;;;;;;;;;;4343485;33;19978;-83
2023/04/22 03:58:48;;;;;;;;;;;;;;;;;;4343412;33;19931;-82
2023/04/22 04:01:13;;;;;;;;;;;;;;;;;;4334676;33;20376;-82
2023/04/22 04:03:38;;;;;;;;;;;;;;;;;;4345290;33;19982;-82
2023/04/22 04:06:03;;;;;;;;;;;;;;;;;;4332386;33;19966;-82
2023/04/22 04:08:28;;;;;;;;;;;;;;;;;;4343105;33;19947;-84
2023/04/22 04:10:54;;;;;;;;;;;;;;;;;;4343521;33;19954;-83
2023/04/22 04:13:19;;;;;;;;;;;;;;;;;;4345083;33;19955;-83
2023/04/22 04:15:44;;;;;;;;;;;;;;;;;;4346241;33;20351;-83
2023/04/22 04:18:10;;;;;;;;;;;;;;;;;;4347220;33;19943;-84
2023/04/22 04:20:35;;;;;;;;;;;;;;;;;;4347213;33;19983;-83
2023/04/22 04:23:00;;;;;;;;;;;;;;;;;;4348903;33;19924;-83
2023/04/22 04:25:25;;;;;;;;;;;;;;;;;;4348658;33;19935;-82
2023/04/22 04:27:50;;;;;;;;;;;;;;;;;;4355089;33;19973;-83
2023/04/22 04:30:16;;;;;;;;;;;;;;;;;;4352127;33;20336;-83
2023/04/22 04:32:41;;;;;;;;;;;;;;;;;;4351517;33;19941;-83
2023/04/22 04:35:07;;;;;;;;;;;;;;;;;;4351074;33;19943;-83
2023/04/22 04:37:32;;;;;;;;;;;;;;;;;;4350987;33;19942;-82
2023/04/22 04:40:00;;;;;;;;;;;;;;;;;;4338003;33;19978;-82
2023/04/22 04:42:25;;;;;;;;;;;;;;;;;;4335333;33;19955;-83
2023/04/22 04:44:50;;;;;;;;;;;;;;;;;;4336043;33;19946;-86
2023/04/22 04:47:15;;;;;;;;;;;;;;;;;;4357087;33;19954;-83
2023/04/22 04:49:42;;;;;;;;;;;;;;;;;;4346499;33;19943;-84
2023/04/22 04:52:10;;;;;;;;;;;;;;;;;;4358297;33;19954;-83
2023/04/22 04:54:35;;;;;;;;;;;;;;;;;;4357613;33;19977;-83
2023/04/22 04:57:00;;;;;;;;;;;;;;;;;;4338941;33;19934;-83
2023/04/22 04:59:25;;;;;;;;;;;;;;;;;;4346640;33;19950;-83
2023/04/22 05:01:50;;;;;;;;;;;;;;;;;;4344495;33;19979;-82
2023/04/22 05:04:16;;;;;;;;;;;;;;;;;;4354823;33;19935;-83
2023/04/22 05:06:41;;;;;;;;;;;;;;;;;;4345281;33;19938;-83
2023/04/22 05:09:06;;;;;;;;;;;;;;;;;;4348244;33;20398;-84
2023/04/22 05:11:31;;;;;;;;;;;;;;;;;;4347422;33;19997;-82
2023/04/22 05:13:57;;;;;;;;;;;;;;;;;;4346723;33;19943;-83
2023/04/22 05:16:22;;;;;;;;;;;;;;;;;;4336048;33;19943;-83
2023/04/22 05:18:47;;;;;;;;;;;;;;;;;;4346798;33;19983;-84
2023/04/22 05:21:12;;;;;;;;;;;;;;;;;;4355128;33;19939;-83
2023/04/22 05:23:38;;;;;;;;;;;;;;;;;;4343256;33;19939;-84
2023/04/22 05:26:03;;;;;;;;;;;;;;;;;;4334190;33;20001;-83
2023/04/22 05:28:28;;;;;;;;;;;;;;;;;;4344418;33;19991;-84
2023/04/22 05:30:53;;;;;;;;;;;;;;;;;;4344328;33;20368;-84
2023/04/22 05:33:18;;;;;;;;;;;;;;;;;;4344715;33;20359;-84
2023/04/22 05:35:43;;;;;;;;;;;;;;;;;;4345461;33;19975;-84
2023/04/22 05:38:09;;;;;;;;;;;;;;;;;;4341064;33;19959;-83
2023/04/22 05:40:34;;;;;;;;;;;;;;;;;;4338213;33;19978;-85
2023/04/22 05:43:00;;;;;;;;;;;;;;;;;;4333760;33;19955;-83
2023/04/22 05:45:25;;;;;;;;;;;;;;;;;;4347047;33;19974;-82
2023/04/22 05:47:50;;;;;;;;;;;;;;;;;;4349575;33;19943;-83
2023/04/22 05:50:15;;;;;;;;;;;;;;;;;;4344795;33;20376;-84
2023/04/22 05:52:40;;;;;;;;;;;;;;;;;;4344339;33;19954;-83
2023/04/22 05:55:05;;;;;;;;;;;;;;;;;;4344008;33;19946;-83
2023/04/22 05:57:30;;;;;;;;;;;;;;;;;;4344436;33;19943;-83
2023/04/22 05:59:55;;;;;;;;;;;;;;;;;;4336384;33;19935;-82
2023/04/22 06:02:20;;;;;;;;;;;;;;;;;;4348131;33;19953;-84
2023/04/22 06:04:46;;;;;;;;;;;;;;;;;;4333828;33;19944;-83
2023/04/22 06:07:11;;;;;;;;;;;;;;;;;;4344158;33;19949;-83
2023/04/22 06:09:36;;;;;;;;;;;;;;;;;;4344798;33;19939;-82
2023/04/22 06:12:01;;;;;;;;;;;;;;;;;;4344548;33;20254;-83
2023/04/22 06:14:26;;;;;;;;;;;;;;;;;;4344133;33;19987;-83
2023/04/22 06:16:52;;;;;;;;;;;;;;;;;;4343408;33;19986;-83
2023/04/22 06:19:17;;;;;;;;;;;;;;;;;;4343526;33;19943;-82
2023/04/22 06:21:42;;;;;;;;;;;;;;;;;;4349182;33;19954;-81
2023/04/22 06:24:09;;;;;;;;;;;;;;;;;;4342287;33;19970;-83
2023/04/22 06:26:34;;;;;;;;;;;;;;;;;;4359138;33;19943;-82
2023/04/22 06:28:59;;;;;;;;;;;;;;;;;;4358782;32;19936;-82
2023/04/22 06:31:24;;;;;;;;;;;;;;;;;;4335822;33;19982;-83
2023/04/22 06:33:49;;;;;;;;;;;;;;;;;;4344919;33;19938;-82
2023/04/22 06:36:14;;;;;;;;;;;;;;;;;;4332536;33;19943;-83
2023/04/22 06:38:39;;;;;;;;;;;;;;;;;;4340874;33;20312;-83
2023/04/22 06:41:05;;;;;;;;;;;;;;;;;;4354743;33;19951;-82
2023/04/22 06:43:30;;;;;;;;;;;;;;;;;;4336346;33;19939;-83
2023/04/22 06:45:55;;;;;;;;;;;;;;;;;;4345474;33;19939;-82
2023/04/22 06:48:20;;;;;;;;;;;;;;;;;;4344839;33;19943;-83
2023/04/22 06:50:45;;;;;;;;;;;;;;;;;;4336549;33;20014;-81
2023/04/22 06:53:10;;;;;;;;;;;;;;;;;;4333254;33;19947;-85
2023/04/22 06:55:35;;;;;;;;;;;;;;;;;;4331347;33;19974;-84
2023/04/22 06:58:01;;;;;;;;;;;;;;;;;;4331541;33;20313;-83
2023/04/22 07:00:27;;;;;;;;;;;;;;;;;;4330618;33;19998;-82
2023/04/22 07:02:52;;;;;;;;;;;;;;;;;;4332437;33;19935;-83
2023/04/22 07:05:17;;;;;;;;;;;;;;;;;;4336031;33;19939;-83
2023/04/22 07:07:42;;;;;;;;;;;;;;;;;;4341926;33;19953;-83
2023/04/22 07:10:07;;;;;;;;;;;;;;;;;;4332281;33;19935;-82
2023/04/22 07:12:32;;;;;;;;;;;;;;;;;;4331325;33;19939;-82
2023/04/22 07:14:57;;;;;;;;;;;;;;;;;;4329955;33;19958;-83
2023/04/22 07:17:22;;;;;;;;;;;;;;;;;;4330910;33;19943;-83
2023/04/22 07:19:47;;;;;;;;;;;;;;;;;;4329908;33;19939;-82
2023/04/22 07:22:12;;;;;;;;;;;;;;;;;;4333559;33;19993;-81
2023/04/22 07:24:38;;;;;;;;;;;;;;;;;;4336329;33;20296;-82
2023/04/22 07:27:03;;;;;;;;;;;;;;;;;;4334628;33;19967;-82
2023/04/22 07:29:28;;;;;;;;;;;;;;;;;;4330012;33;20073;-83
2023/04/22 07:31:54;;;;;;;;;;;;;;;;;;4330453;33;19985;-82
2023/04/22 07:34:19;;;;;;;;;;;;;;;;;;4330360;33;19940;-82
2023/04/22 07:36:44;;;;;;;;;;;;;;;;;;4331732;33;19971;-81
2023/04/22 07:39:09;;;;;;;;;;;;;;;;;;4331193;33;19939;-82
2023/04/22 07:41:35;;;;;;;;;;;;;;;;;;4330110;33;20371;-83
2023/04/22 07:44:00;;;;;;;;;;;;;;;;;;4331072;33;19945;-82
2023/04/22 07:46:25;;;;;;;;;;;;;;;;;;4331195;33;19935;-85
2023/04/22 07:48:50;;;;;;;;;;;;;;;;;;4332651;33;19935;-83
2023/04/22 07:51:16;;;;;;;;;;;;;;;;;;4334541;33;19953;-83
2023/04/22 07:53:41;;;;;;;;;;;;;;;;;;4334092;33;19939;-84
2023/04/22 07:56:06;;;;;;;;;;;;;;;;;;4334975;33;20285;-81
2023/04/22 07:58:31;;;;;;;;;;;;;;;;;;4333403;33;19943;-81
2023/04/22 08:00:56;;;;;;;;;;;;;;;;;;4333184;33;19974;-83
2023/04/22 08:03:21;;;;;;;;;;;;;;;;;;4334638;33;19990;-82
2023/04/22 08:05:46;;;;;;;;;;;;;;;;;;4332218;33;19943;-83
2023/04/22 08:08:11;;;;;;;;;;;;;;;;;;4332866;33;20226;-82
2023/04/22 08:10:36;;;;;;;;;;;;;;;;;;4333786;33;19946;-83
2023/04/22 08:13:02;;;;;;;;;;;;;;;;;;4333468;33;20006;-83
2023/04/22 08:15:27;;;;;;;;;;;;;;;;;;4334601;33;19939;-84
2023/04/22 08:17:52;;;;;;;;;;;;;;;;;;4332267;33;20266;-83
2023/04/22 08:20:17;;;;;;;;;;;;;;;;;;4334842;33;19943;-82
2023/04/22 08:22:42;;;;;;;;;;;;;;;;;;4334616;33;20261;-82
2023/04/22 08:25:08;;;;;;;;;;;;;;;;;;4332870;33;19958;-83
2023/04/22 08:27:33;;;;;;;;;;;;;;;;;;4334302;33;19978;-82
2023/04/22 08:29:58;;;;;;;;;;;;;;;;;;4343623;33;19940;-83
2023/04/22 08:32:25;;;;;;;;;;;;;;;;;;4345057;33;19977;-82
2023/04/22 08:34:50;;;;;;;;;;;;;;;;;;4334023;33;19955;-82
2023/04/22 08:37:15;;;;;;;;;;;;;;;;;;4334544;33;19931;-82
2023/04/22 08:39:40;;;;;;;;;;;;;;;;;;4332185;33;19947;-81
2023/04/22 08:42:05;;;;;;;;;;;;;;;;;;4338762;33;19939;-83
2023/04/22 08:44:30;;;;;;;;;;;;;;;;;;4335861;33;20297;-82
2023/04/22 08:46:55;;;;;;;;;;;;;;;;;;4334334;33;19950;-81
2023/04/22 08:49:21;;;;;;;;;;;;;;;;;;4333737;33;19995;-81
2023/04/22 08:51:46;;;;;;;;;;;;;;;;;;4336826;33;19947;-83
2023/04/22 08:54:11;;;;;;;;;;;;;;;;;;4339667;33;19954;-83
2023/04/22 08:56:36;;;;;;;;;;;;;;;;;;4338356;33;19939;-82
2023/04/22 08:59:01;;;;;;;;;;;;;;;;;;4334518;33;19969;-83
2023/04/22 09:01:26;;;;;;;;;;;;;;;;;;4335406;33;19943;-81
2023/04/22 09:03:51;;;;;;;;;;;;;;;;;;4333266;33;19950;-82
2023/04/22 09:06:16;;;;;;;;;;;;;;;;;;4334811;33;20343;-81
2023/04/22 09:08:42;;;;;;;;;;;;;;;;;;4336945;33;19935;-84
2023/04/22 09:11:07;;;;;;;;;;;;;;;;;;4334728;33;19954;-81
2023/04/22 09:13:33;;;;;;;;;;;;;;;;;;4334218;33;19934;-81
2023/04/22 09:15:58;;;;;;;;;;;;;;;;;;4332483;33;19945;-82
2023/04/22 09:18:23;;;;;;;;;;;;;;;;;;4334888;33;20376;-82
2023/04/22 09:20:49;;;;;;;;;;;;;;;;;;4332646;33;19970;-83
2023/04/22 09:23:14;;;;;;;;;;;;;;;;;;4333753;33;19935;-81
2023/04/22 09:25:39;;;;;;;;;;;;;;;;;;4332779;33;19931;-82
2023/04/22 09:28:04;;;;;;;;;;;;;;;;;;4336090;33;19943;-81
2023/04/22 09:30:30;;;;;;;;;;;;;;;;;;4331546;33;20086;-82
2023/04/22 09:32:55;;;;;;;;;;;;;;;;;;4332245;33;20316;-82
2023/04/22 09:35:20;;;;;;;;;;;;;;;;;;4335977;33;19938;-82
2023/04/22 09:37:45;;;;;;;;;;;;;;;;;;4333886;33;19940;-83
2023/04/22 09:40:10;;;;;;;;;;;;;;;;;;4331826;33;19947;-82
2023/04/22 09:42:35;;;;;;;;;;;;;;;;;;4331635;33;19946;-82
2023/04/22 09:45:00;;;;;;;;;;;;;;;;;;4332827;33;19953;-82
2023/04/22 09:47:25;;;;;;;;;;;;;;;;;;4333295;33;20116;-82
2023/04/22 09:49:51;;;;;;;;;;;;;;;;;;4333553;33;19978;-82
2023/04/22 09:52:16;;;;;;;;;;;;;;;;;;4334201;33;19985;-82
2023/04/22 09:54:41;;;;;;;;;;;;;;;;;;4332889;33;19935;-83
2023/04/22 09:57:12;;;;;;;;;;;;;;;;;;4331404;33;20245;-82
2023/04/22 09:59:37;;;;;;;;;;;;;;;;;;4333290;33;19973;-81
2023/04/22 10:02:03;;;;;;;;;;;;;;;;;;4335195;33;19940;-82
2023/04/22 10:04:28;;;;;;;;;;;;;;;;;;4331410;33;19932;-82
2023/04/22 10:06:53;;;;;;;;;;;;;;;;;;4333687;33;20392;-82
2023/04/22 10:09:19;;;;;;;;;;;;;;;;;;4336766;33;19939;-82
2023/04/22 10:11:44;;;;;;;;;;;;;;;;;;4337157;33;19935;-82
2023/04/22 10:14:10;;;;;;;;;;;;;;;;;;4338497;33;19969;-81
2023/04/22 10:16:35;;;;;;;;;;;;;;;;;;4333417;33;20043;-82
2023/04/22 10:19:00;;;;;;;;;;;;;;;;;;4330834;33;20055;-81
2023/04/22 10:21:25;;;;;;;;;;;;;;;;;;4332567;32;20350;-82
2023/04/22 10:23:50;;;;;;;;;;;;;;;;;;4356045;32;20367;-82
2023/04/22 10:26:15;;;;;;;;;;;;;;;;;;4333446;33;19949;-82
2023/04/22 10:28:40;;;;;;;;;;;;;;;;;;4332259;33;20022;-81
2023/04/22 10:31:06;;;;;;;;;;;;;;;;;;4363531;33;19935;-82
2023/04/22 10:33:33;;;;;;;;;;;;;;;;;;4369358;32;19931;-82
2023/04/22 10:35:58;;;;;;;;;;;;;;;;;;4357995;33;20253;-82
2023/04/22 10:38:23;;;;;;;;;;;;;;;;;;4355684;33;20320;-83
2023/04/22 10:40:48;;;;;;;;;;;;;;;;;;4355540;33;20385;-83
2023/04/22 10:43:14;;;;;;;;;;;;;;;;;;4332380;33;20017;-82
2023/04/22 10:45:39;;;;;;;;;;;;;;;;;;4355889;32;19939;-82
2023/04/22 10:48:04;;;;;;;;;;;;;;;;;;4356303;32;20257;-82
2023/04/22 10:50:29;;;;;;;;;;;;;;;;;;4356175;32;19950;-83
2023/04/22 10:52:55;;;;;;;;;;;;;;;;;;4355404;33;19935;-80
2023/04/22 10:55:20;;;;;;;;;;;;;;;;;;4356264;33;19943;-83
2023/04/22 10:57:45;;;;;;;;;;;;;;;;;;4332422;33;19970;-81
2023/04/22 11:00:10;;;;;;;;;;;;;;;;;;4356069;32;19939;-81
2023/04/22 11:02:40;;;;;;;;;;;;;;;;;;4356821;32;19943;-81
2023/04/22 11:05:05;;;;;;;;;;;;;;;;;;4332897;33;19940;-82
2023/04/22 11:07:33;;;;;;;;;;;;;;;;;;4333473;33;19959;-82
2023/04/22 11:09:58;;;;;;;;;;;;;;;;;;4334098;33;19935;-83
2023/04/22 11:12:23;;;;;;;;;;;;;;;;;;4355790;32;19949;-83
2023/04/22 11:14:48;;;;;;;;;;;;;;;;;;4333953;33;19970;-82
2023/04/22 11:17:14;;;;;;;;;;;;;;;;;;4366672;32;19963;-83
2023/04/22 11:19:39;;;;;;;;;;;;;;;;;;4356525;32;19954;-82
2023/04/22 11:22:04;;;;;;;;;;;;;;;;;;4357192;32;19970;-81
2023/04/22 11:24:29;;;;;;;;;;;;;;;;;;4359314;33;20198;-84
2023/04/22 11:26:55;;;;;;;;;;;;;;;;;;4337659;33;19979;-81
2023/04/22 11:29:20;;;;;;;;;;;;;;;;;;4361434;32;20309;-84
2023/04/22 11:31:46;;;;;;;;;;;;;;;;;;4356624;33;20354;-81
2023/04/22 11:34:11;;;;;;;;;;;;;;;;;;4331892;33;20238;-82
2023/04/22 11:36:36;;;;;;;;;;;;;;;;;;4357310;32;19954;-83
2023/04/22 11:39:01;;;;;;;;;;;;;;;;;;4335668;33;19950;-80
2023/04/22 11:41:26;;;;;;;;;;;;;;;;;;4357840;33;19987;-83
2023/04/22 11:43:53;;;;;;;;;;;;;;;;;;4356485;33;19939;-81
2023/04/22 11:46:18;;;;;;;;;;;;;;;;;;4332799;33;19977;-81
2023/04/22 11:48:43;;;;;;;;;;;;;;;;;;4336187;33;19969;-81
2023/04/22 11:51:09;;;;;;;;;;;;;;;;;;4365111;33;20340;-81
2023/04/22 11:53:35;;;;;;;;;;;;;;;;;;4361614;33;19947;-79
2023/04/22 11:56:00;;;;;;;;;;;;;;;;;;4335228;33;19970;-79
2023/04/22 11:58:26;;;;;;;;;;;;;;;;;;4335457;33;19949;-80
2023/04/22 12:00:51;;;;;;;;;;;;;;;;;;4331575;33;19954;-79
2023/04/22 12:03:16;;;;;;;;;;;;;;;;;;4330653;33;19978;-80
2023/04/22 12:05:41;;;;;;;;;;;;;;;;;;4331232;33;19935;-80
2023/04/22 12:08:06;;;;;;;;;;;;;;;;;;4353950;33;19993;-80
2023/04/22 12:10:32;;;;;;;;;;;;;;;;;;4331176;33;20296;-82
2023/04/22 12:12:57;;;;;;;;;;;;;;;;;;4332495;33;19958;-79
2023/04/22 12:15:22;;;;;;;;;;;;;;;;;;4331208;33;19947;-80
2023/04/22 12:17:47;;;;;;;;;;;;;;;;;;4332307;33;19934;-82
2023/04/22 12:20:12;;;;;;;;;;;;;;;;;;4355178;33;19939;-81
2023/04/22 12:22:38;;;;;;;;;;;;;;;;;;4331218;33;19946;-79
2023/04/22 12:25:03;;;;;;;;;;;;;;;;;;4330867;33;19947;-79
2023/04/22 12:27:28;;;;;;;;;;;;;;;;;;4331491;33;19950;-79
2023/04/22 12:29:53;;;;;;;;;;;;;;;;;;4332950;33;19953;-80
2023/04/22 12:32:18;;;;;;;;;;;;;;;;;;4336086;33;19998;-80
2023/04/22 12:34:43;;;;;;;;;;;;;;;;;;4339658;33;19970;-80
2023/04/22 12:37:08;;;;;;;;;;;;;;;;;;4369376;32;19935;-80
2023/04/22 12:39:33;;;;;;;;;;;;;;;;;;4362325;33;19988;-81
2023/04/22 12:41:58;;;;;;;;;;;;;;;;;;4356978;32;20321;-81
2023/04/22 12:44:24;;;;;;;;;;;;;;;;;;4334899;33;20029;-81
2023/04/22 12:46:50;;;;;;;;;;;;;;;;;;4357303;32;20321;-81
2023/04/22 12:49:15;;;;;;;;;;;;;;;;;;4334999;33;19942;-80
2023/04/22 12:51:40;;;;;;;;;;;;;;;;;;4334275;33;20355;-80
2023/04/22 12:54:05;;;;;;;;;;;;;;;;;;4356929;32;19991;-81
2023/04/22 12:56:30;;;;;;;;;;;;;;;;;;4333186;33;19953;-81
2023/04/22 12:58:56;;;;;;;;;;;;;;;;;;4333751;33;19953;-81
2023/04/22 13:01:21;;;;;;;;;;;;;;;;;;4334103;33;19999;-80
2023/04/22 13:03:46;;;;;;;;;;;;;;;;;;4356938;32;19939;-82
2023/04/22 13:06:11;;;;;;;;;;;;;;;;;;4334209;33;20234;-82
2023/04/22 13:08:36;;;;;;;;;;;;;;;;;;4356807;32;20324;-81
2023/04/22 13:11:02;;;;;;;;;;;;;;;;;;4333408;33;19954;-80
2023/04/22 13:13:27;;;;;;;;;;;;;;;;;;4333352;33;19943;-81
2023/04/22 13:15:52;;;;;;;;;;;;;;;;;;4357006;32;19947;-81
2023/04/22 13:18:17;;;;;;;;;;;;;;;;;;4332788;33;19942;-81
2023/04/22 13:20:43;;;;;;;;;;;;;;;;;;4333205;33;19954;-80
2023/04/22 13:23:08;;;;;;;;;;;;;;;;;;4333166;33;19949;-81
2023/04/22 13:25:33;;;;;;;;;;;;;;;;;;4332983;33;19975;-81
2023/04/22 13:27:58;;;;;;;;;;;;;;;;;;4333990;33;20301;-83
2023/04/22 13:30:23;;;;;;;;;;;;;;;;;;4356906;32;19939;-80
2023/04/22 13:32:49;;;;;;;;;;;;;;;;;;4333534;33;19953;-81
2023/04/22 13:35:14;;;;;;;;;;;;;;;;;;4333622;32;19943;-81
2023/04/22 13:37:39;;;;;;;;;;;;;;;;;;4335244;33;19936;-80
2023/04/22 13:40:07;;;;;;;;;;;;;;;;;;4343860;33;19954;-82
2023/04/22 13:42:33;;;;;;;;;;;;;;;;;;4335657;33;19942;-81
2023/04/22 13:44:58;;;;;;;;;;;;;;;;;;4334171;33;19961;-81
2023/04/22 13:47:23;;;;;;;;;;;;;;;;;;4334535;32;19939;-80
2023/04/22 13:49:48;;;;;;;;;;;;;;;;;;4334580;33;19935;-81
2023/04/22 13:52:13;;;;;;;;;;;;;;;;;;4339765;33;19939;-80
2023/04/22 13:54:38;;;;;;;;;;;;;;;;;;4350890;33;19967;-80
2023/04/22 13:57:03;;;;;;;;;;;;;;;;;;4346169;33;19934;-79
2023/04/22 13:59:28;;;;;;;;;;;;;;;;;;4349132;33;19939;-79
2023/04/22 14:01:54;;;;;;;;;;;;;;;;;;4348078;33;20316;-80
2023/04/22 14:04:19;;;;;;;;;;;;;;;;;;4348586;33;19950;-81
2023/04/22 14:06:44;;;;;;;;;;;;;;;;;;4346885;33;19946;-79
2023/04/22 14:09:09;;;;;;;;;;;;;;;;;;4345798;32;19958;-79
2023/04/22 14:11:35;;;;;;;;;;;;;;;;;;4346768;33;19969;-80
2023/04/22 14:14:00;;;;;;;;;;;;;;;;;;4347532;33;19966;-80
2023/04/22 14:16:25;;;;;;;;;;;;;;;;;;4347182;32;19947;-81
2023/04/22 14:18:50;;;;;;;;;;;;;;;;;;4346026;33;19947;-82
2023/04/22 14:21:15;;;;;;;;;;;;;;;;;;4350664;33;19946;-80
2023/04/22 14:23:40;;;;;;;;;;;;;;;;;;4347520;33;20301;-83
2023/04/22 14:26:05;;;;;;;;;;;;;;;;;;4347632;33;19953;-83
2023/04/22 14:28:30;;;;;;;;;;;;;;;;;;4348959;33;19953;-85
2023/04/22 14:30:56;;;;;;;;;;;;;;;;;;4347936;33;19939;-82
2023/04/22 14:33:23;;;;;;;;;;;;;;;;;;4347052;33;19938;-81
2023/04/22 14:35:48;;;;;;;;;;;;;;;;;;4352470;33;19950;-80
2023/04/22 14:38:13;;;;;;;;;;;;;;;;;;4357133;33;19937;-81
2023/04/22 14:40:38;;;;;;;;;;;;;;;;;;4360112;33;19969;-81
2023/04/22 14:43:03;;;;;;;;;;;;;;;;;;4358327;33;20167;-81
2023/04/22 14:45:29;;;;;;;;;;;;;;;;;;4350926;33;20346;-81
2023/04/22 14:47:54;;;;;;;;;;;;;;;;;;4353491;33;19953;-81
2023/04/22 14:50:19;;;;;;;;;;;;;;;;;;4351793;33;19950;-80
2023/04/22 14:52:44;;;;;;;;;;;;;;;;;;4348531;33;20320;-82
2023/04/22 14:55:10;;;;;;;;;;;;;;;;;;4348034;32;19947;-81
2023/04/22 14:57:35;;;;;;;;;;;;;;;;;;4349420;33;19942;-81
2023/04/22 15:00:00;;;;;;;;;;;;;;;;;;4347501;33;19949;-80
2023/04/22 15:02:25;;;;;;;;;;;;;;;;;;4347717;33;19954;-80
2023/04/22 15:04:51;;;;;;;;;;;;;;;;;;4346308;33;19974;-81
2023/04/22 15:07:16;;;;;;;;;;;;;;;;;;4344861;33;19999;-81
2023/04/22 15:09:41;;;;;;;;;;;;;;;;;;4346950;33;20346;-83
2023/04/22 15:12:06;;;;;;;;;;;;;;;;;;4346161;32;20000;-82
2023/04/22 15:14:32;;;;;;;;;;;;;;;;;;4346140;33;20350;-81
2023/04/22 15:16:57;;;;;;;;;;;;;;;;;;4344894;33;19965;-82
2023/04/22 15:19:22;;;;;;;;;;;;;;;;;;4345041;33;19966;-82
2023/04/22 15:21:47;;;;;;;;;;;;;;;;;;4346070;33;20303;-83
2023/04/22 15:24:12;;;;;;;;;;;;;;;;;;4346355;33;19977;-83
2023/04/22 15:26:39;;;;;;;;;;;;;;;;;;4346036;33;19938;-83
2023/04/22 15:29:04;;;;;;;;;;;;;;;;;;4345387;33;19980;-82
2023/04/22 15:31:29;;;;;;;;;;;;;;;;;;4347527;33;19946;-83
2023/04/22 15:33:55;;;;;;;;;;;;;;;;;;4347360;33;19935;-84
2023/04/22 15:36:20;;;;;;;;;;;;;;;;;;4350448;33;19939;-82
2023/04/22 15:38:45;;;;;;;;;;;;;;;;;;4346564;33;19942;-84
2023/04/22 15:41:11;;;;;;;;;;;;;;;;;;4345918;33;19957;-83
2023/04/22 15:43:36;;;;;;;;;;;;;;;;;;4345865;33;19951;-82
2023/04/22 15:46:01;;;;;;;;;;;;;;;;;;4346484;33;19969;-84
2023/04/22 15:48:26;;;;;;;;;;;;;;;;;;4347381;33;19954;-81
2023/04/22 15:50:51;;;;;;;;;;;;;;;;;;4348517;33;19981;-84
2023/04/22 15:53:16;;;;;;;;;;;;;;;;;;4347076;33;20013;-86
2023/04/22 15:55:41;;;;;;;;;;;;;;;;;;4348152;33;19981;-85
2023/04/22 15:58:06;;;;;;;;;;;;;;;;;;4345748;33;19992;-86
2023/04/22 16:00:31;;;;;;;;;;;;;;;;;;4346787;33;20359;-88
2023/04/22 16:02:57;;;;;;;;;;;;;;;;;;4346118;33;20284;-86
2023/04/22 16:05:23;;;;;;;;;;;;;;;;;;4346654;33;19950;-86
2023/04/22 16:07:48;;;;;;;;;;;;;;;;;;4345415;33;19947;-85
2023/04/22 16:10:13;;;;;;;;;;;;;;;;;;4347566;32;20034;-85
2023/04/22 16:12:38;;;;;;;;;;;;;;;;;;4348108;32;19939;-85
2023/04/22 16:15:04;;;;;;;;;;;;;;;;;;4347846;33;20329;-85
2023/04/22 16:17:29;;;;;;;;;;;;;;;;;;4349938;33;19947;-84
2023/04/22 16:19:54;;;;;;;;;;;;;;;;;;4347686;33;19973;-85
2023/04/22 16:22:19;;;;;;;;;;;;;;;;;;4347826;33;19939;-85
2023/04/22 16:24:44;;;;;;;;;;;;;;;;;;4348599;33;19939;-86
2023/04/22 16:27:11;;;;;;;;;;;;;;;;;;4347389;32;19943;-84
2023/04/22 16:29:36;;;;;;;;;;;;;;;;;;4348712;33;20346;-84
2023/04/22 16:32:02;;;;;;;;;;;;;;;;;;4347706;32;20332;-85